Terminal Aerodrome Forecast
Issued by NWS

Home | Current Version | Previous Version | Text Only | Print | Product List | Glossary On
Versions: 1 2 3 4 5 6 7 8 9 10 11 12 13 14
000
FTUS45 KABQ 241100
TAFTCC
TAF
KTCC 241121Z 2412/2512 28011KT P6SM SCT100
      TEMPO 2417/2421 28011G21KT
     FM242300 02012G22KT P6SM SCT070 BKN100
     FM250700 30006KT P6SM SCT100=

USA.gov is the U.S. government's official web portal to all federal, state and local government web resources and services.